Time;durP1;ratioP1;P1;durP2;ratioP2;P2;SDS_P1;SDS_P2;PMS_P1;PMS_P2;Temp;Humidity;BMP_temperature;BMP_pressure;BME280_temperature;BME280_humidity;BME280_pressure;Samples;Min_cycle;Max_cycle;Signal;HPM_P1;HPM_P2
2023/11/13 00:00:51;;;;;;;;;;;;;;;19.59;63.74;100851.88;7393741;19;1507;-50
2023/11/13 00:03:20;;;;;;;;;;;;;;;19.60;63.90;100850.91;7383199;19;1357;-54
2023/11/13 00:05:49;;;;;;;;;;;;;;;19.60;64.02;100850.91;7396377;19;1573;-50
2023/11/13 00:08:17;;;;;;;;;;;;;;;19.57;63.86;100845.78;7393468;19;1506;-50
2023/11/13 00:10:46;;;;;;;;;;;;;;;19.58;64.03;100850.19;7396056;19;1498;-50
2023/11/13 00:13:15;;;;;;;;;;;;;;;19.59;63.88;100859.91;7397540;19;1177;-50
2023/11/13 00:15:46;;;;;;;;;;;;;;;19.63;63.68;100862.19;7394518;19;1841;-50
2023/11/13 00:18:14;;;;;;;;;;;;;;;19.76;63.19;100864.66;7395608;19;1502;-50
2023/11/13 00:20:45;;;;;;;;;;;;;;;19.77;63.32;100870.88;7395972;19;1426;-50
2023/11/13 00:23:13;;;;;;;;;;;;;;;19.73;63.22;100856.88;7395811;19;1528;-50
2023/11/13 00:25:41;;;;;;;;;;;;;;;19.71;63.00;100860.66;7392832;19;1545;-50
2023/11/13 00:28:11;;;;;;;;;;;;;;;19.73;63.21;100867.59;7396511;19;1494;-50
2023/11/13 00:30:39;;;;;;;;;;;;;;;19.65;63.39;100857.53;7395709;19;1325;-51
2023/11/13 00:33:10;;;;;;;;;;;;;;;19.63;63.54;100872.91;7397659;19;1008;-50
2023/11/13 00:35:39;;;;;;;;;;;;;;;19.55;63.58;100867.38;7394375;19;1843;-49
2023/11/13 00:38:08;;;;;;;;;;;;;;;19.57;63.68;100861.88;7395715;19;1334;-50
2023/11/13 00:40:36;;;;;;;;;;;;;;;19.55;63.67;100853.13;7394980;19;1564;-50
2023/11/13 00:43:05;;;;;;;;;;;;;;;19.56;64.01;100861.03;7394660;19;1511;-50
2023/11/13 00:45:33;;;;;;;;;;;;;;;19.55;63.68;100858.50;7394599;19;1510;-51
2023/11/13 00:48:02;;;;;;;;;;;;;;;19.52;63.92;100846.22;7395862;19;1439;-50
2023/11/13 00:50:34;;;;;;;;;;;;;;;19.53;63.99;100834.47;7394722;19;1389;-50
2023/11/13 00:53:02;;;;;;;;;;;;;;;19.53;63.85;100833.66;7395980;19;1550;-50
2023/11/13 00:55:30;;;;;;;;;;;;;;;19.57;63.81;100840.44;7393867;19;1860;-50
2023/11/13 00:57:59;;;;;;;;;;;;;;;19.58;63.39;100848.34;7395635;19;1384;-50
2023/11/13 01:00:27;;;;;;;;;;;;;;;19.56;63.65;100870.94;7393290;19;1414;-50
2023/11/13 01:02:55;;;;;;;;;;;;;;;19.51;63.66;100847.19;7381859;19;1304;-50
2023/11/13 01:05:24;;;;;;;;;;;;;;;19.54;63.63;100852.28;7394609;19;1479;-50
2023/11/13 01:07:55;;;;;;;;;;;;;;;19.51;63.78;100867.81;7394822;19;1345;-49
2023/11/13 01:10:24;;;;;;;;;;;;;;;19.51;63.74;100874.00;7395479;19;1344;-50
2023/11/13 01:12:53;;;;;;;;;;;;;;;19.50;63.72;100872.31;7394796;19;1056;-51
2023/11/13 01:15:22;;;;;;;;;;;;;;;19.46;63.85;100854.81;7393695;19;1840;-50
2023/11/13 01:17:51;;;;;;;;;;;;;;;19.50;63.88;100855.38;7394177;19;1616;-50
2023/11/13 01:20:19;;;;;;;;;;;;;;;19.47;63.88;100851.97;7392945;19;1537;-50
2023/11/13 01:22:48;;;;;;;;;;;;;;;19.46;63.92;100850.28;7394516;19;1614;-49
2023/11/13 01:25:19;;;;;;;;;;;;;;;19.51;63.87;100865.13;7394566;19;2007;-50
2023/11/13 01:27:47;;;;;;;;;;;;;;;19.54;63.83;100872.91;7394407;19;1478;-50
2023/11/13 01:30:16;;;;;;;;;;;;;;;19.56;63.71;100853.00;7393320;19;1490;-50
2023/11/13 01:32:44;;;;;;;;;;;;;;;19.59;63.38;100867.97;7394255;19;1482;-50
2023/11/13 01:35:12;;;;;;;;;;;;;;;19.59;63.23;100870.66;7393241;19;1867;-50
2023/11/13 01:37:41;;;;;;;;;;;;;;;19.55;63.44;100858.50;7392845;19;1436;-50
2023/11/13 01:40:10;;;;;;;;;;;;;;;19.58;63.35;100866.28;7392131;19;1384;-50
2023/11/13 01:42:41;;;;;;;;;;;;;;;19.61;63.50;100871.34;7392968;19;1375;-50
2023/11/13 01:45:09;;;;;;;;;;;;;;;19.61;63.47;100864.16;7393339;19;1700;-50
2023/11/13 01:47:38;;;;;;;;;;;;;;;19.57;63.69;100872.63;7393946;19;1486;-50
2023/11/13 01:50:07;;;;;;;;;;;;;;;19.56;63.84;100854.84;7393398;19;1511;-50
2023/11/13 01:52:36;;;;;;;;;;;;;;;19.56;63.88;100862.88;7394337;19;1514;-50
2023/11/13 01:55:04;;;;;;;;;;;;;;;19.50;64.02;100866.09;7392840;19;1843;-50
2023/11/13 01:57:33;;;;;;;;;;;;;;;19.47;63.95;100860.00;7392220;19;1549;-51
2023/11/13 02:00:05;;;;;;;;;;;;;;;19.47;63.94;100857.34;7392249;19;1581;-50
2023/11/13 02:02:34;;;;;;;;;;;;;;;19.50;64.09;100855.38;7378887;19;1483;-50
2023/11/13 02:05:02;;;;;;;;;;;;;;;19.54;63.92;100865.69;7393461;19;1577;-50
2023/11/13 02:07:30;;;;;;;;;;;;;;;19.57;63.64;100861.88;7392255;19;1403;-50
2023/11/13 02:09:59;;;;;;;;;;;;;;;19.53;63.93;100861.31;7392925;19;1172;-49
2023/11/13 02:12:28;;;;;;;;;;;;;;;19.51;63.78;100879.38;7393244;19;1486;-50
2023/11/13 02:14:56;;;;;;;;;;;;;;;19.44;63.85;100868.34;7392747;19;1846;-52
2023/11/13 02:17:27;;;;;;;;;;;;;;;19.46;63.98;100882.47;7391329;19;1885;-50
2023/11/13 02:19:55;;;;;;;;;;;;;;;19.41;64.15;100870.44;7392397;19;1515;-51
2023/11/13 02:22:24;;;;;;;;;;;;;;;19.44;63.84;100867.50;7393058;19;1831;-51
2023/11/13 02:24:56;;;;;;;;;;;;;;;20.18;61.92;100866.25;7390149;19;1402;-51
2023/11/13 02:27:25;;;;;;;;;;;;;;;20.58;61.01;100847.28;7391454;19;2078;-49
2023/11/13 02:29:53;;;;;;;;;;;;;;;21.21;59.29;100848.56;7391905;19;1451;-50
2023/11/13 02:32:23;;;;;;;;;;;;;;;21.49;58.71;100856.66;7391439;19;1432;-50
2023/11/13 02:34:51;;;;;;;;;;;;;;;21.92;57.69;100855.13;7391996;19;2138;-50
2023/11/13 02:37:20;;;;;;;;;;;;;;;22.02;57.32;100893.59;7389872;19;1846;-50
2023/11/13 02:39:49;;;;;;;;;;;;;;;22.03;57.24;100876.44;7391500;19;1485;-50
2023/11/13 02:42:20;;;;;;;;;;;;;;;22.05;57.31;100866.38;7391026;19;2442;-50
2023/11/13 02:44:48;;;;;;;;;;;;;;;22.00;57.48;100865.97;7391553;19;1839;-50
2023/11/13 02:47:17;;;;;;;;;;;;;;;22.03;57.30;100861.13;7391302;19;1416;-50
2023/11/13 02:49:45;;;;;;;;;;;;;;;22.13;57.19;100862.91;7392424;19;1583;-50
2023/11/13 02:52:13;;;;;;;;;;;;;;;22.27;56.78;100883.13;7391628;19;1511;-50
2023/11/13 02:54:42;;;;;;;;;;;;;;;22.48;56.37;100859.34;7391245;19;1651;-50
2023/11/13 02:57:10;;;;;;;;;;;;;;;22.39;56.51;100876.47;7389703;19;1870;-51
2023/11/13 02:59:41;;;;;;;;;;;;;;;22.44;56.55;100863.38;7390626;19;1430;-50
2023/11/13 03:02:09;;;;;;;;;;;;;;;22.64;56.14;100864.91;7379567;19;1467;-51
2023/11/13 03:04:38;;;;;;;;;;;;;;;22.44;56.43;100864.25;7392451;19;1547;-50
2023/11/13 03:07:06;;;;;;;;;;;;;;;22.56;56.20;100872.94;7392096;19;1233;-50
2023/11/13 03:09:35;;;;;;;;;;;;;;;22.67;55.93;100852.09;7390765;19;1401;-50
2023/11/13 03:12:04;;;;;;;;;;;;;;;22.54;56.19;100866.84;7391082;19;1683;-50
2023/11/13 03:14:34;;;;;;;;;;;;;;;22.49;56.25;100866.47;7392502;19;1455;-50
2023/11/13 03:17:05;;;;;;;;;;;;;;;22.60;55.95;100877.00;7390470;19;1834;-50
2023/11/13 03:19:33;;;;;;;;;;;;;;;22.66;55.78;100877.34;7389988;19;1364;-50
2023/11/13 03:22:02;;;;;;;;;;;;;;;22.63;55.92;100879.38;7389389;19;1691;-50
2023/11/13 03:24:30;;;;;;;;;;;;;;;22.69;55.96;100867.13;7389659;19;1384;-50
2023/11/13 03:26:59;;;;;;;;;;;;;;;22.74;55.84;100878.28;7389508;19;1404;-49
2023/11/13 03:29:27;;;;;;;;;;;;;;;22.76;55.65;100873.56;7390392;19;1565;-51
2023/11/13 03:31:56;;;;;;;;;;;;;;;22.69;55.61;100859.03;7390321;19;1411;-50
2023/11/13 03:34:27;;;;;;;;;;;;;;;22.73;55.74;100848.78;7392762;19;993;-49
2023/11/13 03:36:55;;;;;;;;;;;;;;;22.86;55.27;100837.56;7396128;19;1841;-50
2023/11/13 03:39:23;;;;;;;;;;;;;;;22.72;55.61;100855.16;7397743;19;1447;-50
2023/11/13 03:41:52;;;;;;;;;;;;;;;22.79;55.48;100853.53;7397463;19;1574;-51
2023/11/13 03:44:20;;;;;;;;;;;;;;;22.81;55.18;100848.81;7396607;19;1558;-50
2023/11/13 03:46:48;;;;;;;;;;;;;;;22.84;55.32;100848.53;7396700;19;1352;-52
2023/11/13 03:49:17;;;;;;;;;;;;;;;22.84;55.32;100851.22;7396804;19;1380;-50
2023/11/13 03:51:48;;;;;;;;;;;;;;;22.72;55.48;100866.81;7397514;19;1289;-50
2023/11/13 03:54:16;;;;;;;;;;;;;;;22.88;55.43;100854.41;7397069;19;1573;-50
2023/11/13 03:56:45;;;;;;;;;;;;;;;22.34;56.43;100868.00;7395050;19;1849;-50
2023/11/13 03:59:13;;;;;;;;;;;;;;;21.78;57.75;100859.19;7396737;19;1934;-51
2023/11/13 04:01:42;;;;;;;;;;;;;;;21.45;58.29;100872.28;7396356;19;1506;-52
2023/11/13 04:04:10;;;;;;;;;;;;;;;21.29;58.59;100872.88;7382444;19;1384;-50
2023/11/13 04:06:39;;;;;;;;;;;;;;;21.20;58.78;100884.50;7396598;19;1370;-51
2023/11/13 04:09:10;;;;;;;;;;;;;;;21.08;59.02;100872.25;7397143;19;1498;-50
2023/11/13 04:11:38;;;;;;;;;;;;;;;20.98;59.04;100864.19;7396490;19;1364;-50
2023/11/13 04:14:06;;;;;;;;;;;;;;;20.80;59.53;100864.94;7395914;19;1578;-50
2023/11/13 04:16:35;;;;;;;;;;;;;;;20.78;59.75;100887.59;7394839;19;1852;-51
2023/11/13 04:19:03;;;;;;;;;;;;;;;20.76;59.84;100876.16;7395431;19;1605;-51
2023/11/13 04:21:32;;;;;;;;;;;;;;;20.77;59.80;100880.50;7395705;19;1618;-50
2023/11/13 04:24:00;;;;;;;;;;;;;;;20.76;59.58;100892.28;7395933;19;1328;-51
2023/11/13 04:26:31;;;;;;;;;;;;;;;20.74;59.59;100895.09;7396098;19;1345;-50
2023/11/13 04:28:59;;;;;;;;;;;;;;;20.74;59.43;100910.38;7397761;19;1300;-50
2023/11/13 04:31:28;;;;;;;;;;;;;;;20.60;59.77;100912.50;7392796;19;1470;-50
2023/11/13 04:33:56;;;;;;;;;;;;;;;20.55;59.44;100919.25;7396194;19;1325;-51
2023/11/13 04:36:25;;;;;;;;;;;;;;;20.46;59.88;100912.91;7393284;19;1865;-50
2023/11/13 04:38:53;;;;;;;;;;;;;;;20.38;60.25;100918.13;7396728;19;1684;-50
2023/11/13 04:41:22;;;;;;;;;;;;;;;20.35;59.81;100915.72;7396698;19;1296;-51
2023/11/13 04:43:52;;;;;;;;;;;;;;;20.29;60.17;100927.03;7395040;19;1499;-50
2023/11/13 04:46:21;;;;;;;;;;;;;;;20.27;60.27;100936.09;7389606;19;1475;-50
2023/11/13 04:48:49;;;;;;;;;;;;;;;20.23;60.53;100934.69;7396694;19;1522;-50
2023/11/13 04:51:17;;;;;;;;;;;;;;;20.13;60.65;100923.03;7394700;19;1498;-50
2023/11/13 04:53:46;;;;;;;;;;;;;;;20.17;60.54;100924.47;7394491;19;1405;-51
2023/11/13 04:56:15;;;;;;;;;;;;;;;20.16;60.72;100928.16;7394785;19;1861;-51
2023/11/13 04:58:43;;;;;;;;;;;;;;;20.21;60.54;100925.91;7393808;19;1566;-50
2023/11/13 05:01:14;;;;;;;;;;;;;;;20.21;60.63;100941.16;7394783;19;1580;-51
2023/11/13 05:03:43;;;;;;;;;;;;;;;20.08;57.65;100935.22;7378870;19;1220;-50
2023/11/13 05:06:15;;;;;;;;;;;;;;;20.03;59.34;100932.94;7393695;19;1926;-50
2023/11/13 05:08:44;;;;;;;;;;;;;;;19.99;60.08;100936.88;7394792;19;1350;-50
2023/11/13 05:11:22;;;;;;;;;;;;;;;19.97;60.11;100928.13;7394228;19;1356;-51
2023/11/13 05:13:50;;;;;;;;;;;;;;;19.95;60.42;100938.97;7393033;19;1517;-50
2023/11/13 05:16:23;;;;;;;;;;;;;;;19.93;60.32;100937.44;7392783;19;1843;-50
2023/11/13 05:18:52;;;;;;;;;;;;;;;19.89;60.60;100939.53;7392965;19;1390;-51
2023/11/13 05:21:21;;;;;;;;;;;;;;;19.90;61.42;100949.28;7393773;19;1382;-51
2023/11/13 05:23:49;;;;;;;;;;;;;;;19.88;60.96;100937.84;7394532;19;1372;-51
2023/11/13 05:26:18;;;;;;;;;;;;;;;19.88;61.48;100937.84;7395280;19;1099;-51
2023/11/13 05:28:47;;;;;;;;;;;;;;;19.89;61.94;100941.38;7393069;19;1816;-52
2023/11/13 05:31:16;;;;;;;;;;;;;;;19.86;62.17;100956.75;7393818;19;1396;-51
2023/11/13 05:33:47;;;;;;;;;;;;;;;19.84;61.77;100944.47;7393969;19;1483;-50
2023/11/13 05:36:15;;;;;;;;;;;;;;;19.87;61.79;100954.91;7394334;19;1843;-50
2023/11/13 05:38:44;;;;;;;;;;;;;;;19.90;61.54;100953.81;7391259;19;1757;-51
2023/11/13 05:41:12;;;;;;;;;;;;;;;19.96;61.59;100956.78;7394790;19;1196;-50
2023/11/13 05:43:41;;;;;;;;;;;;;;;20.04;61.57;100961.47;7328351;19;12811;-50
2023/11/13 05:46:10;;;;;;;;;;;;;;;19.97;61.03;100960.31;7391514;19;1494;-51
2023/11/13 05:48:38;;;;;;;;;;;;;;;20.09;61.30;100998.66;7391580;19;1678;-51
2023/11/13 05:51:09;;;;;;;;;;;;;;;20.14;61.03;100993.72;7390576;19;1542;-51
2023/11/13 05:53:38;;;;;;;;;;;;;;;20.19;61.27;101003.06;7391258;19;1400;-50
2023/11/13 05:56:06;;;;;;;;;;;;;;;20.13;61.10;101002.75;7392566;19;1495;-51
2023/11/13 05:58:35;;;;;;;;;;;;;;;19.75;52.54;101004.31;7393150;19;1484;-51
2023/11/13 06:01:03;;;;;;;;;;;;;;;19.29;48.41;101006.44;7391903;19;1649;-50
2023/11/13 06:03:32;;;;;;;;;;;;;;;19.28;46.48;101016.31;7379615;19;1242;-51
2023/11/13 06:06:00;;;;;;;;;;;;;;;19.10;45.76;101008.97;7391356;19;1498;-50
2023/11/13 06:08:31;;;;;;;;;;;;;;;19.06;45.10;101011.94;7392547;19;1393;-50
2023/11/13 06:10:59;;;;;;;;;;;;;;;18.98;44.66;101027.81;7393292;19;1514;-51
2023/11/13 06:13:29;;;;;;;;;;;;;;;18.88;43.48;101045.66;7392495;19;1322;-50
2023/11/13 06:15:57;;;;;;;;;;;;;;;18.84;43.16;101037.03;7392358;19;1376;-51
2023/11/13 06:18:25;;;;;;;;;;;;;;;18.83;43.12;101039.81;7392311;19;1850;-51
2023/11/13 06:20:54;;;;;;;;;;;;;;;18.75;43.11;101047.63;7391775;19;2591;-51
2023/11/13 06:23:23;;;;;;;;;;;;;;;18.67;41.97;101038.38;7391860;19;1511;-53
2023/11/13 06:25:54;;;;;;;;;;;;;;;18.73;42.98;101037.00;7385150;19;1420;-51
2023/11/13 06:28:22;;;;;;;;;;;;;;;18.97;43.55;101042.19;7387095;19;1498;-51
2023/11/13 06:30:51;;;;;;;;;;;;;;;19.26;44.98;101038.91;7387877;19;1380;-50
2023/11/13 06:33:19;;;;;;;;;;;;;;;19.55;47.74;101054.31;7388406;19;1391;-50
2023/11/13 06:35:48;;;;;;;;;;;;;;;19.68;48.04;101037.03;7391586;19;1519;-50
2023/11/13 06:38:17;;;;;;;;;;;;;;;19.82;47.79;101037.69;7388772;19;1841;-50
2023/11/13 06:40:45;;;;;;;;;;;;;;;19.70;48.60;101033.38;7391327;19;1555;-50
2023/11/13 06:43:19;;;;;;;;;;;;;;;19.82;48.12;101021.59;7389131;19;1575;-41
2023/11/13 06:45:47;;;;;;;;;;;;;;;19.98;48.42;101035.34;7389883;19;1476;-41
2023/11/13 06:48:16;;;;;;;;;;;;;;;20.00;48.48;101048.66;7388928;19;1531;-41
2023/11/13 06:50:44;;;;;;;;;;;;;;;20.05;49.06;101038.34;7388229;19;1973;-41
2023/11/13 06:53:13;;;;;;;;;;;;;;;20.03;49.21;101022.38;7391023;19;1449;-41
2023/11/13 06:55:42;;;;;;;;;;;;;;;20.01;49.45;101032.38;7389424;19;1413;-41
2023/11/13 06:58:10;;;;;;;;;;;;;;;19.98;49.87;101042.56;7389626;19;1843;-41
2023/11/13 07:00:41;;;;;;;;;;;;;;;19.89;49.93;101030.78;7388842;19;1603;-41
2023/11/13 07:03:10;;;;;;;;;;;;;;;19.09;50.22;100922.38;7389131;19;1233;-41
2023/11/13 07:05:38;;;;;;;;;;;;;;;19.93;50.32;101039.41;7380103;19;1585;-41
2023/11/13 07:08:09;;;;;;;;;;;;;;;19.94;50.67;101035.75;7385604;19;1325;-41
2023/11/13 07:10:38;;;;;;;;;;;;;;;19.88;51.07;101044.34;7392397;19;1372;-41
2023/11/13 07:13:10;;;;;;;;;;;;;;;19.91;51.05;101022.59;7397018;19;1387;-41
2023/11/13 07:15:38;;;;;;;;;;;;;;;19.88;51.28;101022.88;7395061;19;1454;-41
2023/11/13 07:18:10;;;;;;;;;;;;;;;19.97;51.34;101040.84;7394100;19;1841;-40
2023/11/13 07:20:39;;;;;;;;;;;;;;;19.93;51.74;101034.91;7394366;19;1480;-41
2023/11/13 07:23:09;;;;;;;;;;;;;;;19.96;51.72;101020.38;7394425;19;1489;-42
2023/11/13 07:25:37;;;;;;;;;;;;;;;19.91;52.14;101025.28;7395238;19;1499;-40
2023/11/13 07:28:06;;;;;;;;;;;;;;;19.95;52.05;101029.41;7394101;19;1399;-41
2023/11/13 07:30:34;;;;;;;;;;;;;;;19.95;52.18;101019.50;7395415;19;1451;-41
2023/11/13 07:33:03;;;;;;;;;;;;;;;19.90;52.37;101015.56;7397154;19;1513;-41
2023/11/13 07:35:37;;;;;;;;;;;;;;;19.85;52.77;101022.16;7395988;19;1392;-41
2023/11/13 07:38:07;;;;;;;;;;;;;;;19.88;52.87;101030.94;7394138;19;1859;-41
2023/11/13 07:40:36;;;;;;;;;;;;;;;19.88;52.68;101021.03;7396190;19;1162;-41
2023/11/13 07:43:08;;;;;;;;;;;;;;;19.89;52.78;101021.88;7394231;19;1535;-41
2023/11/13 07:45:37;;;;;;;;;;;;;;;19.96;52.88;101001.59;7394594;19;1433;-41
2023/11/13 07:48:07;;;;;;;;;;;;;;;19.93;53.11;100999.16;7394807;19;1445;-41
2023/11/13 07:50:38;;;;;;;;;;;;;;;19.88;53.11;100998.72;7394088;19;1582;-41
2023/11/13 07:53:08;;;;;;;;;;;;;;;19.95;53.29;101010.59;7394355;19;1411;-41
2023/11/13 07:55:36;;;;;;;;;;;;;;;19.96;53.44;101017.69;7395023;19;1433;-41
2023/11/13 07:58:06;;;;;;;;;;;;;;;19.95;53.45;101010.59;7392906;19;1883;-41
2023/11/13 08:00:34;;;;;;;;;;;;;;;19.92;53.73;101010.91;7393737;19;1467;-41
2023/11/13 08:03:03;;;;;;;;;;;;;;;19.87;53.45;100997.88;7395495;19;1364;-41
2023/11/13 08:05:34;;;;;;;;;;;;;;;19.73;53.99;101007.13;7380874;19;1578;-41
2023/11/13 08:08:05;;;;;;;;;;;;;;;19.65;54.64;100993.50;7395388;19;1486;-40
2023/11/13 08:10:33;;;;;;;;;;;;;;;19.77;54.31;100989.78;7395573;19;1309;-41
2023/11/13 08:13:03;;;;;;;;;;;;;;;19.96;53.94;101009.63;7393293;19;1094;-41
2023/11/13 08:15:32;;;;;;;;;;;;;;;20.08;53.69;101013.06;7396097;19;1812;-41
2023/11/13 08:18:00;;;;;;;;;;;;;;;20.01;53.69;100993.94;7393859;19;1881;-41
2023/11/13 08:20:29;;;;;;;;;;;;;;;20.05;53.88;101000.75;7394066;19;1336;-41
2023/11/13 08:22:59;;;;;;;;;;;;;;;19.98;54.22;100980.81;7391948;19;1346;-41
2023/11/13 08:25:30;;;;;;;;;;;;;;;20.01;54.27;100989.44;7394228;19;1392;-41
2023/11/13 08:27:59;;;;;;;;;;;;;;;19.98;54.27;100981.66;7394405;19;1483;-41
2023/11/13 08:30:27;;;;;;;;;;;;;;;19.97;54.18;100992.53;7393218;19;1426;-41
2023/11/13 08:32:56;;;;;;;;;;;;;;;20.00;54.17;100971.63;7394311;19;1550;-41
2023/11/13 08:35:24;;;;;;;;;;;;;;;19.97;54.28;100976.44;7395571;19;1495;-40
2023/11/13 08:37:52;;;;;;;;;;;;;;;20.00;54.39;100976.16;7394474;19;1869;-41
2023/11/13 08:40:23;;;;;;;;;;;;;;;20.02;54.51;100968.81;7396166;19;1482;-41
2023/11/13 08:42:54;;;;;;;;;;;;;;;20.03;54.66;100967.81;7392402;19;1595;-41
2023/11/13 08:45:24;;;;;;;;;;;;;;;20.04;54.69;100973.06;7394800;19;1439;-41
2023/11/13 08:47:53;;;;;;;;;;;;;;;20.03;54.96;100975.88;7395236;19;1538;-41
2023/11/13 08:50:22;;;;;;;;;;;;;;;20.02;54.86;100963.47;7392092;19;1726;-41
2023/11/13 08:52:53;;;;;;;;;;;;;;;20.01;54.96;100961.75;7392261;19;1403;-41
2023/11/13 08:55:23;;;;;;;;;;;;;;;20.01;55.18;100956.38;7393776;19;1445;-41
2023/11/13 08:57:55;;;;;;;;;;;;;;;20.08;54.99;100968.28;7393781;19;1844;-41
2023/11/13 09:00:24;;;;;;;;;;;;;;;20.03;54.85;100962.44;7395837;19;993;-41
2023/11/13 09:02:53;;;;;;;;;;;;;;;20.02;54.54;100958.94;7393257;19;1864;-41
2023/11/13 09:05:25;;;;;;;;;;;;;;;20.03;54.51;100965.13;7378142;19;1558;-42
2023/11/13 09:07:55;;;;;;;;;;;;;;;20.06;54.61;100962.19;7394454;19;1420;-41
2023/11/13 09:10:26;;;;;;;;;;;;;;;20.05;54.57;100961.34;7395500;19;1065;-41
2023/11/13 09:12:58;;;;;;;;;;;;;;;20.09;54.87;100961.06;7395814;19;1033;-41
2023/11/13 09:15:28;;;;;;;;;;;;;;;20.10;55.05;100950.19;7392107;19;1547;-41
2023/11/13 09:18:01;;;;;;;;;;;;;;;20.14;54.79;100956.97;7391496;19;1884;-41
2023/11/13 09:20:29;;;;;;;;;;;;;;;20.17;54.78;100956.69;7391938;19;1447;-41
2023/11/13 09:22:58;;;;;;;;;;;;;;;20.12;54.57;100942.00;7392466;19;1450;-41
2023/11/13 09:25:28;;;;;;;;;;;;;;;20.14;54.36;100956.97;7391850;19;1605;-41
2023/11/13 09:27:59;;;;;;;;;;;;;;;20.10;54.81;100950.19;7391064;19;1371;-41
2023/11/13 09:30:27;;;;;;;;;;;;;;;20.13;55.01;100954.44;7393393;19;1561;-41
2023/11/13 09:32:56;;;;;;;;;;;;;;;20.18;55.02;100957.56;7393595;19;1229;-41
2023/11/13 09:35:26;;;;;;;;;;;;;;;20.21;55.03;100958.13;7391084;19;1539;-41
2023/11/13 09:37:55;;;;;;;;;;;;;;;20.17;55.16;100950.47;7392852;19;1861;-40
2023/11/13 09:40:25;;;;;;;;;;;;;;;20.18;55.72;100968.28;7392683;19;1496;-41
2023/11/13 09:42:54;;;;;;;;;;;;;;;20.15;55.52;100964.03;7392126;19;1475;-41
2023/11/13 09:45:27;;;;;;;;;;;;;;;20.21;55.68;100963.50;7390510;19;2070;-41
2023/11/13 09:47:59;;;;;;;;;;;;;;;20.17;55.76;100959.38;7392774;19;1610;-41
2023/11/13 09:50:27;;;;;;;;;;;;;;;20.15;55.94;100968.56;7392822;19;1535;-41
2023/11/13 09:52:59;;;;;;;;;;;;;;;20.09;56.07;100969.97;7392531;19;1316;-41
2023/11/13 09:55:27;;;;;;;;;;;;;;;20.10;56.12;100963.63;7388993;19;1428;-41
2023/11/13 09:57:56;;;;;;;;;;;;;;;20.14;56.10;100969.56;7392098;19;1845;-41
2023/11/13 10:00:32;;;;;;;;;;;;;;;20.16;56.00;100991.75;7390761;19;1254;-41
2023/11/13 10:03:00;;;;;;;;;;;;;;;20.20;55.85;100975.22;7391782;19;1152;-40
2023/11/13 10:05:30;;;;;;;;;;;;;;;20.21;56.12;100974.25;7376533;19;1500;-41
2023/11/13 10:07:58;;;;;;;;;;;;;;;20.20;56.05;100972.53;7391002;19;1511;-41
2023/11/13 10:10:29;;;;;;;;;;;;;;;20.33;55.62;100982.16;7390873;19;1330;-41
2023/11/13 10:13:01;;;;;;;;;;;;;;;20.35;55.56;100964.06;7391340;19;1486;-40
2023/11/13 10:15:32;;;;;;;;;;;;;;;20.40;55.35;100972.56;7390754;19;1730;-41
2023/11/13 10:18:01;;;;;;;;;;;;;;;20.34;55.67;100973.97;7387686;19;1866;-41
2023/11/13 10:20:30;;;;;;;;;;;;;;;20.30;55.67;100980.59;7389706;19;1409;-41
2023/11/13 10:23:00;;;;;;;;;;;;;;;20.31;55.50;100984.97;7392801;19;1508;-41
2023/11/13 10:25:30;;;;;;;;;;;;;;;20.26;55.56;100963.06;7391492;19;1606;-41
2023/11/13 10:27:59;;;;;;;;;;;;;;;20.24;55.81;100946.25;7392230;19;1514;-40
2023/11/13 10:30:28;;;;;;;;;;;;;;;20.23;55.89;100969.59;7282356;19;1614;-41
2023/11/13 10:32:59;;;;;;;;;;;;;;;20.20;55.99;100964.47;7389516;19;1125;-41
2023/11/13 10:35:32;;;;;;;;;;;;;;;20.29;56.02;100964.63;7391966;19;1496;-41
2023/11/13 10:38:03;;;;;;;;;;;;;;;20.25;56.01;100959.56;7388743;19;1873;-41
2023/11/13 10:40:33;;;;;;;;;;;;;;;20.20;56.37;100972.53;7390468;19;1546;-41
2023/11/13 10:43:04;;;;;;;;;;;;;;;20.19;55.80;100956.56;7391034;19;1463;-41
2023/11/13 10:45:31;;;;;;;;;;;;;;;20.22;55.83;100981.28;7387736;19;1557;-41
2023/11/13 10:48:02;;;;;;;;;;;;;;;20.24;55.95;100963.22;7389327;19;1483;-41
2023/11/13 10:50:32;;;;;;;;;;;;;;;20.20;56.04;100967.16;7389453;19;1545;-41
2023/11/13 10:53:01;;;;;;;;;;;;;;;20.24;56.01;100963.22;7389863;19;1445;-41
2023/11/13 10:55:30;;;;;;;;;;;;;;;20.31;56.07;100965.34;7388525;19;2461;-41
2023/11/13 10:57:58;;;;;;;;;;;;;;;20.31;55.89;100966.19;7389410;19;1877;-41
2023/11/13 11:00:29;;;;;;;;;;;;;;;20.23;55.89;100969.59;7389491;19;1204;-40
2023/11/13 11:02:58;;;;;;;;;;;;;;;20.19;55.99;100965.47;7386740;19;1485;-44
2023/11/13 11:05:31;;;;;;;;;;;;;;;20.18;56.16;100965.63;7371917;19;1527;-45
2023/11/13 11:08:01;;;;;;;;;;;;;;;20.20;54.90;100967.16;7389243;19;1444;-44
2023/11/13 11:10:29;;;;;;;;;;;;;;;20.22;55.42;100964.34;7388821;19;1475;-44
2023/11/13 11:13:03;;;;;;;;;;;;;;;20.19;56.01;100960.09;7387131;19;1167;-41
2023/11/13 11:15:48;;;;;;;;;;;;;;;20.18;55.79;100950.34;7386161;19;1466;-41
2023/11/13 11:18:21;;;;;;;;;;;;;;;20.24;56.13;100967.75;7385837;19;1848;-40
2023/11/13 11:20:58;;;;;;;;;;;;;;;20.23;56.27;100964.22;7389653;19;1860;-41
2023/11/13 11:23:29;;;;;;;;;;;;;;;20.26;54.87;100955.84;7388701;19;1557;-41
2023/11/13 11:25:59;;;;;;;;;;;;;;;20.27;54.38;100945.97;7390581;19;1601;-41
2023/11/13 11:28:41;;;;;;;;;;;;;;;20.37;54.80;100937.91;7388785;19;1522;-40
2023/11/13 11:31:24;;;;;;;;;;;;;;;20.40;55.38;100945.72;7387111;19;1738;-41
2023/11/13 11:33:52;;;;;;;;;;;;;;;20.37;55.75;100938.78;7390126;19;1507;-41
2023/11/13 11:36:25;;;;;;;;;;;;;;;20.32;55.81;100943.72;7389417;19;1503;-41
2023/11/13 11:39:09;;;;;;;;;;;;;;;20.34;55.82;100930.16;7386019;19;1845;-41
2023/11/13 11:41:41;;;;;;;;;;;;;;;20.33;55.88;100934.66;7389674;19;1637;-41
2023/11/13 11:44:11;;;;;;;;;;;;;;;20.33;55.75;100942.72;7390115;19;1345;-41
2023/11/13 11:46:43;;;;;;;;;;;;;;;20.39;55.57;100938.63;7388798;19;1360;-41
2023/11/13 11:49:23;;;;;;;;;;;;;;;20.49;55.29;100925.19;7387553;19;1473;-41
2023/11/13 11:51:54;;;;;;;;;;;;;;;20.49;55.20;100920.66;7388812;19;1322;-41
2023/11/13 11:54:24;;;;;;;;;;;;;;;20.54;55.14;100904.97;7388562;19;1441;-41
2023/11/13 11:57:00;;;;;;;;;;;;;;;20.55;55.40;100913.88;7393409;19;1372;-41
2023/11/13 11:59:29;;;;;;;;;;;;;;;20.54;55.53;100921.09;7393301;19;1862;-41
2023/11/13 12:01:58;;;;;;;;;;;;;;;20.56;55.31;100919.13;7394990;19;1495;-41
2023/11/13 12:04:27;;;;;;;;;;;;;;;20.52;54.96;100917.72;7395694;19;1614;-41
2023/11/13 12:06:57;;;;;;;;;;;;;;;20.53;54.98;100924.78;7378618;19;1871;-41
2023/11/13 12:09:27;;;;;;;;;;;;;;;20.42;55.57;100911.50;7393985;19;1373;-41
2023/11/13 12:11:59;;;;;;;;;;;;;;;20.35;55.96;100907.66;7395991;19;1543;-41
2023/11/13 12:14:28;;;;;;;;;;;;;;;20.27;55.89;100894.94;7394242;19;1501;-41
2023/11/13 12:16:57;;;;;;;;;;;;;;;20.26;56.11;100906.69;7392538;19;1456;-41
2023/11/13 12:19:25;;;;;;;;;;;;;;;20.29;55.75;100902.88;7391096;19;1860;-40
2023/11/13 12:21:54;;;;;;;;;;;;;;;20.17;55.84;100897.63;7394673;19;1518;-41
2023/11/13 12:24:25;;;;;;;;;;;;;;;20.25;55.24;100899.59;7396533;19;1432;-41
2023/11/13 12:26:56;;;;;;;;;;;;;;;20.13;55.28;100903.41;7395495;19;1145;-41
2023/11/13 12:29:25;;;;;;;;;;;;;;;20.08;56.00;100871.63;7393803;19;1558;-41
2023/11/13 12:31:54;;;;;;;;;;;;;;;20.07;56.07;100891.38;7395154;19;1577;-41
2023/11/13 12:34:23;;;;;;;;;;;;;;;20.03;55.34;100889.97;7392610;19;1516;-41
2023/11/13 12:36:51;;;;;;;;;;;;;;;20.04;55.42;100889.84;7395650;19;1441;-41
2023/11/13 12:39:24;;;;;;;;;;;;;;;20.04;55.02;100886.31;7393026;19;1861;-41
2023/11/13 12:41:57;;;;;;;;;;;;;;;20.02;54.73;100899.03;7394539;19;1486;-41
2023/11/13 12:44:25;;;;;;;;;;;;;;;20.00;54.87;100891.09;7394033;19;1561;-41
2023/11/13 12:46:55;;;;;;;;;;;;;;;19.98;55.04;100889.56;7393850;19;1511;-40
2023/11/13 12:49:24;;;;;;;;;;;;;;;19.97;54.20;100901.28;7393547;19;1440;-41
2023/11/13 12:51:53;;;;;;;;;;;;;;;19.88;54.70;100886.03;7393417;19;1913;-41
2023/11/13 12:54:21;;;;;;;;;;;;;;;19.89;54.47;100903.81;7391848;19;1403;-41
2023/11/13 12:56:51;;;;;;;;;;;;;;;19.88;54.75;100908.31;7393705;19;1488;-41
2023/11/13 12:59:28;;;;;;;;;;;;;;;19.81;54.55;100896.44;7393620;19;1847;-41